Time;durP1;ratioP1;P1;durP2;ratioP2;P2;SDS_P1;SDS_P2;PMS_P1;PMS_P2;Temp;Humidity;BMP_temperature;BMP_pressure;BME280_temperature;BME280_humidity;BME280_pressure;Samples;Min_cycle;Max_cycle;Signal;HPM_P1;HPM_P2
2023/08/24 00:01:16;;;;;;;18.25;11.02;;;;;;;23.50;71.16;94947.91;4993175;28;20181;-81
2023/08/24 00:03:43;;;;;;;17.77;11.55;;;;;;;23.44;71.70;94950.94;4993470;28;20188;-81
2023/08/24 00:06:09;;;;;;;20.88;11.32;;;;;;;23.47;71.84;94967.25;4993744;28;20617;-81
2023/08/24 00:08:34;;;;;;;20.25;13.00;;;;;;;23.37;71.85;94950.44;4993418;28;20235;-81
2023/08/24 00:11:00;;;;;;;18.58;11.07;;;;;;;23.48;72.03;94971.53;4993869;28;20188;-81
2023/08/24 00:13:25;;;;;;;24.67;12.77;;;;;;;23.38;71.98;94952.06;4993611;28;20208;-81
2023/08/24 00:15:53;;;;;;;25.48;14.70;;;;;;;23.49;71.80;94962.44;4975795;28;20177;-81
2023/08/24 00:18:21;;;;;;;27.02;17.10;;;;;;;23.47;71.93;94953.81;4993509;28;20168;-81
2023/08/24 00:20:47;;;;;;;31.33;19.17;;;;;;;23.32;71.18;94929.84;4993215;28;20537;-81
2023/08/24 00:23:13;;;;;;;32.10;18.80;;;;;;;23.32;71.26;94937.91;4976226;28;20197;-81
2023/08/24 00:25:40;;;;;;;30.85;19.92;;;;;;;23.43;70.92;94946.63;4993377;28;20212;-81
2023/08/24 00:28:06;;;;;;;36.75;22.27;;;;;;;23.26;71.45;94931.00;4993229;28;20248;-81
2023/08/24 00:30:31;;;;;;;37.53;24.77;;;;;;;23.38;71.86;94952.06;4993182;28;20637;-81
2023/08/24 00:32:57;;;;;;;46.25;28.15;;;;;;;23.31;71.74;94942.47;4992965;28;20236;-81
2023/08/24 00:35:22;;;;;;;35.53;22.85;;;;;;;23.27;71.87;94940.63;4993416;28;20707;-81
2023/08/24 00:37:48;;;;;;;28.77;18.20;;;;;;;23.30;71.73;94951.63;4976093;28;20180;-81
2023/08/24 00:40:13;;;;;;;33.78;21.00;;;;;;;23.26;71.74;94957.88;4993174;28;20165;-81
2023/08/24 00:42:40;;;;;;;32.85;19.55;;;;;;;23.21;72.07;94957.91;4992860;28;20168;-81
2023/08/24 00:45:07;;;;;;;33.35;18.10;;;;;;;23.16;72.50;94955.31;4993050;28;20188;-81
2023/08/24 00:47:33;;;;;;;25.48;15.25;;;;;;;23.12;71.95;94946.19;4993180;28;20169;-81
2023/08/24 00:50:03;;;;;;;23.48;13.95;;;;;;;23.02;72.13;94944.44;4992779;28;20440;-81
2023/08/24 00:52:32;;;;;;;27.52;15.35;;;;;;;22.85;72.78;94927.97;4993494;28;20169;-81
2023/08/24 00:55:01;;;;;;;24.23;14.48;;;;;;;23.00;72.98;94953.88;4993356;28;20150;-81
2023/08/24 00:57:30;;;;;;;22.60;13.27;;;;;;;22.09;72.81;94808.81;4975265;28;20173;-80
2023/08/24 00:59:56;;;;;;;22.17;13.05;;;;;;;23.03;72.74;94958.66;4993099;28;20586;-81
2023/08/24 01:02:22;;;;;;;18.20;12.40;;;;;;;22.90;72.79;94950.22;4993171;28;20177;-81
2023/08/24 01:04:47;;;;;;;20.08;11.73;;;;;;;22.79;72.92;94945.25;4993148;28;20644;-81
2023/08/24 01:07:15;;;;;;;21.23;13.07;;;;;;;22.69;73.11;94937.25;4993185;28;20165;-81
2023/08/24 01:09:41;;;;;;;24.30;12.50;;;;;;;22.96;73.10;94961.69;4992966;28;20248;-81
2023/08/24 01:12:18;;;;;;;28.60;13.90;;;;;;;22.91;73.22;94951.81;4992886;28;20249;-81
2023/08/24 01:15:07;;;;;;;18.25;12.35;;;;;;;22.97;72.72;94951.75;4996597;28;20157;-81
2023/08/24 01:17:35;;;;;;;23.05;11.13;;;;;;;22.86;72.94;94940.31;4996718;28;20176;-81
2023/08/24 01:20:05;;;;;;;20.40;12.73;;;;;;;22.72;73.23;94937.50;4997056;28;20528;-81
2023/08/24 01:22:37;;;;;;;17.17;12.35;;;;;;;22.83;73.27;94948.97;4996411;28;20952;-82
2023/08/24 01:25:15;;;;;;;18.58;12.88;;;;;;;22.82;73.52;94945.47;4978882;28;20239;-82
2023/08/24 01:27:42;;;;;;;26.13;12.85;;;;;;;22.81;73.80;94949.25;4996328;28;20168;-82
2023/08/24 01:30:08;;;;;;;19.30;12.38;;;;;;;22.81;73.56;94951.13;4996441;28;20180;-82
2023/08/24 01:32:35;;;;;;;17.55;10.77;;;;;;;22.66;73.55;94929.78;4996411;28;20685;-82
2023/08/24 01:35:04;;;;;;;14.35;10.98;;;;;;;22.69;74.11;94948.78;4996492;28;20200;-82
2023/08/24 01:37:29;;;;;;;19.63;10.73;;;;;;;22.66;73.68;94949.34;4996836;28;20177;-82
2023/08/24 01:40:12;;;;;;;16.80;10.73;;;;;;;22.63;74.16;94951.81;4996735;28;20165;-82
2023/08/24 01:43:02;;;;;;;17.08;11.90;;;;;;;22.66;74.23;94953.94;4978801;28;20617;-82
2023/08/24 01:45:31;;;;;;;16.05;10.90;;;;;;;22.71;73.84;94962.75;4996465;28;20185;-82
2023/08/24 01:47:59;;;;;;;14.15;11.38;;;;;;;22.68;73.75;94949.06;4996316;28;20157;-82
2023/08/24 01:50:25;;;;;;;20.85;10.45;;;;;;;22.76;73.37;94961.91;4995935;28;20173;-82
2023/08/24 01:52:50;;;;;;;17.52;10.15;;;;;;;22.78;73.75;94960.53;4996538;28;20613;-82
2023/08/24 01:55:19;;;;;;;15.30;10.30;;;;;;;22.70;73.37;94952.28;4995873;28;20252;-82
2023/08/24 01:57:44;;;;;;;13.57;10.52;;;;;;;22.80;73.36;94965.63;4978334;28;20219;-82
2023/08/24 02:00:10;;;;;;;17.55;10.00;;;;;;;22.61;73.05;94944.03;4995994;28;20196;-82
2023/08/24 02:02:36;;;;;;;18.80;10.60;;;;;;;22.72;73.66;94958.16;4995738;28;20716;-82
2023/08/24 02:05:02;;;;;;;14.73;10.10;;;;;;;22.69;73.57;94966.78;4996044;28;20208;-82
2023/08/24 02:07:28;;;;;;;17.33;9.93;;;;;;;22.41;73.62;94925.44;4995813;28;20248;-83
2023/08/24 02:09:53;;;;;;;16.42;10.00;;;;;;;22.61;73.72;94964.72;4994515;28;20252;-82
2023/08/24 02:12:19;;;;;;;16.67;10.35;;;;;;;22.61;73.71;94967.41;4993788;28;20180;-82
2023/08/24 02:14:44;;;;;;;16.20;10.35;;;;;;;22.61;74.05;94981.63;4994895;28;20239;-82
2023/08/24 02:17:10;;;;;;;18.52;10.57;;;;;;;22.59;73.45;94973.84;4994468;28;20171;-82
2023/08/24 02:19:35;;;;;;;14.23;10.70;;;;;;;22.37;73.82;94943.22;4994196;28;20451;-82
2023/08/24 02:22:01;;;;;;;13.40;9.70;;;;;;;22.45;74.05;94970.22;4977934;28;20311;-82
2023/08/24 02:24:26;;;;;;;13.63;10.38;;;;;;;22.45;74.30;94964.06;4995177;28;20667;-81
2023/08/24 02:26:51;;;;;;;15.95;10.75;;;;;;;22.47;73.86;94976.13;4995397;28;20180;-82
2023/08/24 02:29:17;;;;;;;16.40;9.63;;;;;;;22.28;74.11;94958.31;4995818;28;20161;-82
2023/08/24 02:31:42;;;;;;;17.60;9.85;;;;;;;22.33;74.41;94969.78;4995224;28;20236;-82
2023/08/24 02:34:08;;;;;;;14.02;9.20;;;;;;;22.25;74.55;94969.59;4995655;28;20204;-82
2023/08/24 02:36:33;;;;;;;18.27;10.27;;;;;;;22.19;74.87;94963.47;4995011;28;20420;-82
2023/08/24 02:38:59;;;;;;;17.63;11.35;;;;;;;21.96;75.76;94951.56;4995243;28;20254;-81
2023/08/24 02:41:26;;;;;;;19.35;14.52;;;;;;;21.52;77.24;94934.69;4994294;28;20423;-81
2023/08/24 02:43:51;;;;;;;18.65;13.98;;;;;;;21.57;78.12;94950.72;4993971;28;20431;-82
2023/08/24 02:46:18;;;;;;;19.85;12.82;;;;;;;21.74;77.15;94945.81;4994953;28;20188;-82
2023/08/24 02:48:44;;;;;;;21.30;13.48;;;;;;;21.80;76.95;94950.03;4994270;28;20431;-82
2023/08/24 02:51:10;;;;;;;19.52;12.50;;;;;;;21.96;76.08;94946.19;4995167;28;20170;-82
2023/08/24 02:53:35;;;;;;;24.67;16.13;;;;;;;22.01;75.98;94937.34;4977356;28;20169;-82
2023/08/24 02:56:02;;;;;;;23.08;15.13;;;;;;;21.98;75.34;94919.91;4995044;28;20580;-82
2023/08/24 02:58:28;;;;;;;33.90;15.90;;;;;;;22.23;75.29;94953.00;4994897;28;20163;-82
2023/08/24 03:00:53;;;;;;;24.30;14.10;;;;;;;22.25;75.32;94958.84;4994475;28;20172;-82
2023/08/24 03:03:19;;;;;;;32.97;17.48;;;;;;;22.27;75.10;94954.03;4995095;28;20188;-82
2023/08/24 03:05:58;;;;;;;38.38;24.48;;;;;;;22.23;74.95;94961.03;4994932;28;20688;-82
2023/08/24 03:08:24;;;;;;;33.92;21.70;;;;;;;22.25;75.36;94950.81;4976993;28;20180;-82
2023/08/24 03:10:50;;;;;;;37.20;19.33;;;;;;;22.12;75.04;94934.31;4994398;28;20201;-82
2023/08/24 03:13:16;;;;;;;33.53;20.15;;;;;;;22.31;74.95;94963.13;4985537;28;20256;-82
2023/08/24 03:15:42;;;;;;;22.23;13.65;;;;;;;22.26;74.43;94953.22;4955666;28;20191;-82
2023/08/24 03:18:07;;;;;;;23.70;12.35;;;;;;;22.28;74.57;94971.72;4938369;29;20166;-82
2023/08/24 03:20:32;;;;;;;18.27;11.98;;;;;;;22.16;74.90;94962.16;4955543;28;20268;-82
2023/08/24 03:22:58;;;;;;;19.10;11.63;;;;;;;22.12;75.06;94963.00;4955940;29;20174;-82
2023/08/24 03:25:23;;;;;;;20.67;11.40;;;;;;;22.25;74.87;94983.81;4967659;28;20193;-79
2023/08/24 03:27:50;;;;;;;14.73;10.15;;;;;;;22.23;74.89;94988.63;4963444;28;20182;-79
2023/08/24 03:30:16;;;;;;;18.15;10.88;;;;;;;22.00;75.19;94955.31;4955837;29;20241;-79
2023/08/24 03:32:41;;;;;;;16.10;11.23;;;;;;;22.11;74.81;94983.66;4971005;28;20689;-81
2023/08/24 03:35:07;;;;;;;14.60;11.13;;;;;;;22.06;75.57;94989.03;4994185;28;20161;-81
2023/08/24 03:37:33;;;;;;;18.20;11.07;;;;;;;21.80;76.37;94987.56;4993627;28;20435;-81
2023/08/24 03:39:58;;;;;;;18.55;11.68;;;;;;;21.59;77.60;94984.22;4992908;28;20404;-81
2023/08/24 03:42:24;;;;;;;12.63;10.43;;;;;;;21.33;77.01;94937.22;4993976;28;20255;-81
2023/08/24 03:44:49;;;;;;;18.38;10.85;;;;;;;21.78;77.18;95003.94;4975815;28;20587;-82
2023/08/24 03:47:15;;;;;;;17.25;10.68;;;;;;;21.65;76.55;94972.38;4993508;28;20179;-82
2023/08/24 03:49:44;;;;;;;15.80;10.27;;;;;;;21.80;76.55;95004.47;4993831;28;20239;-82
2023/08/24 03:52:09;;;;;;;23.33;15.07;;;;;;;21.91;76.27;95009.75;4976543;28;20698;-82
2023/08/24 03:54:34;;;;;;;42.78;21.15;;;;;;;21.86;76.65;95013.28;4976161;28;20256;-81
2023/08/24 03:57:01;;;;;;;43.05;23.98;;;;;;;21.61;76.34;94971.34;4993577;28;20181;-81
2023/08/24 03:59:26;;;;;;;37.03;22.85;;;;;;;21.69;76.64;94984.19;4976564;28;20177;-81
2023/08/24 04:01:51;;;;;;;40.05;21.05;;;;;;;21.80;76.38;95006.34;4994048;28;20180;-81
2023/08/24 04:04:17;;;;;;;35.65;19.65;;;;;;;21.74;76.22;94992.16;4975959;28;20612;-82
2023/08/24 04:06:43;;;;;;;33.35;18.58;;;;;;;21.69;76.20;94978.81;4993559;28;20180;-81
2023/08/24 04:09:09;;;;;;;31.73;16.50;;;;;;;21.88;75.96;95008.44;4993644;28;20177;-82
2023/08/24 04:11:34;;;;;;;30.17;14.57;;;;;;;21.76;75.94;94986.53;4993251;28;20986;-82
2023/08/24 04:14:00;;;;;;;30.85;15.05;;;;;;;21.69;76.15;94983.38;4993187;28;20173;-81
2023/08/24 04:16:25;;;;;;;22.27;13.88;;;;;;;21.91;75.84;95005.19;4993686;28;20608;-81
2023/08/24 04:18:50;;;;;;;22.77;11.93;;;;;;;21.80;75.52;94983.00;4993194;28;20283;-81
2023/08/24 04:21:16;;;;;;;18.52;12.10;;;;;;;21.83;75.67;95000.44;4993255;28;20192;-82
2023/08/24 04:23:44;;;;;;;37.50;19.75;;;;;;;21.85;75.56;95003.63;4992896;28;20204;-82
2023/08/24 04:26:11;;;;;;;38.33;18.88;;;;;;;21.90;76.26;95003.59;4993459;28;20624;-81
2023/08/24 04:28:37;;;;;;;49.08;28.13;;;;;;;21.94;75.75;95001.16;4993502;28;20173;-82
2023/08/24 04:31:03;;;;;;;59.40;28.52;;;;;;;22.03;76.01;95008.38;4993595;28;20247;-82
2023/08/24 04:33:28;;;;;;;44.75;23.40;;;;;;;21.93;75.71;94999.56;4993200;28;20228;-83
2023/08/24 04:35:53;;;;;;;52.35;24.40;;;;;;;21.91;75.63;94991.78;4975968;28;20185;-83
2023/08/24 04:38:19;;;;;;;28.80;14.25;;;;;;;22.01;74.85;94999.81;4993098;28;20539;-81
2023/08/24 04:40:51;;;;;;;24.67;11.95;;;;;;;22.02;75.05;95005.97;4992760;28;20177;-81
2023/08/24 04:43:17;;;;;;;31.58;15.70;;;;;;;22.03;75.61;95011.06;4992748;28;20188;-81
2023/08/24 04:45:42;;;;;;;30.05;15.45;;;;;;;21.97;75.28;94998.75;4993000;28;20169;-82
2023/08/24 04:48:08;;;;;;;18.63;11.88;;;;;;;22.13;74.86;95008.31;4992814;28;20173;-82
2023/08/24 04:50:33;;;;;;;20.48;11.68;;;;;;;22.12;74.74;95000.53;4992935;28;20184;-82
2023/08/24 04:52:59;;;;;;;38.22;13.80;;;;;;;22.09;75.45;94995.72;4993190;28;20161;-81
2023/08/24 04:55:24;;;;;;;22.08;12.02;;;;;;;21.89;75.25;94956.41;4993063;28;20648;-81
2023/08/24 04:57:49;;;;;;;20.60;12.27;;;;;;;22.01;75.42;94985.59;4992801;28;20624;-82
2023/08/24 05:00:16;;;;;;;19.98;12.52;;;;;;;22.17;74.70;95003.97;4992996;28;20161;-81
2023/08/24 05:02:42;;;;;;;21.90;11.82;;;;;;;22.18;74.93;95008.28;4993344;28;20176;-81
2023/08/24 05:05:13;;;;;;;34.88;17.60;;;;;;;22.28;74.99;95017.31;4992852;28;20672;-81
2023/08/24 05:07:39;;;;;;;40.45;24.23;;;;;;;22.42;74.79;95020.97;4992803;28;20169;-82
2023/08/24 05:10:06;;;;;;;51.55;26.95;;;;;;;22.38;74.94;95001.16;4992730;28;20173;-81
2023/08/24 05:12:33;;;;;;;43.05;22.50;;;;;;;22.57;74.58;95018.94;4993253;28;20173;-81
2023/08/24 05:14:59;;;;;;;41.22;18.10;;;;;;;22.70;74.42;95028.25;4993239;28;20161;-82
2023/08/24 05:17:26;;;;;;;40.72;20.63;;;;;;;22.73;74.68;95008.91;4992605;28;20173;-82
2023/08/24 05:19:53;;;;;;;34.78;19.88;;;;;;;22.84;74.54;95029.19;4992550;28;20166;-82
2023/08/24 05:22:18;;;;;;;38.67;20.52;;;;;;;22.93;74.17;95030.19;4992448;28;20162;-82
2023/08/24 05:24:44;;;;;;;51.90;25.52;;;;;;;23.02;73.79;95032.25;4992677;28;20581;-82
2023/08/24 05:27:09;;;;;;;58.65;25.50;;;;;;;23.10;74.21;95037.00;4993027;28;20161;-82
2023/08/24 05:29:35;;;;;;;42.72;21.33;;;;;;;23.20;73.68;95036.91;4992616;28;20177;-81
2023/08/24 05:32:00;;;;;;;24.75;13.13;;;;;;;23.18;71.80;95026.44;4974961;28;20232;-82
2023/08/24 05:34:25;;;;;;;31.98;18.67;;;;;;;23.17;72.19;95021.38;4992408;28;20212;-82
2023/08/24 05:36:51;;;;;;;21.38;13.13;;;;;;;23.32;71.60;95050.75;4992892;28;20223;-82
2023/08/24 05:39:16;;;;;;;22.98;13.63;;;;;;;23.37;71.58;95055.25;4992356;28;20204;-82
2023/08/24 05:41:42;;;;;;;19.77;12.02;;;;;;;23.36;71.56;95041.00;4992658;28;20220;-82
2023/08/24 05:44:07;;;;;;;18.88;12.52;;;;;;;23.41;71.78;95032.09;4992386;28;20275;-81
2023/08/24 05:46:33;;;;;;;17.63;11.93;;;;;;;23.26;70.36;94998.16;4992660;28;20173;-81
2023/08/24 05:48:59;;;;;;;22.08;14.73;;;;;;;23.64;70.18;95044.75;4992331;28;20625;-81
2023/08/24 05:51:25;;;;;;;22.63;13.13;;;;;;;23.64;70.24;95039.38;4992517;28;20208;-82
2023/08/24 05:53:55;;;;;;;26.73;14.82;;;;;;;23.66;70.50;95034.53;4992544;28;20158;-82
2023/08/24 05:56:21;;;;;;;18.35;13.50;;;;;;;23.81;70.38;95033.50;4975337;28;20238;-81
2023/08/24 05:58:47;;;;;;;21.55;13.60;;;;;;;24.03;69.56;95041.84;4992966;28;20177;-82
2023/08/24 06:01:12;;;;;;;21.25;11.98;;;;;;;24.35;68.78;95058.06;4995787;28;20173;-81
2023/08/24 06:03:38;;;;;;;15.77;10.23;;;;;;;24.47;67.53;95046.06;4995636;28;20217;-81
2023/08/24 06:06:04;;;;;;;14.88;11.00;;;;;;;24.67;66.54;95053.78;4996047;28;20172;-81
2023/08/24 06:08:30;;;;;;;17.60;10.73;;;;;;;24.76;66.06;95031.28;4995998;28;20168;-82
2023/08/24 06:10:56;;;;;;;16.27;10.85;;;;;;;25.10;65.66;95055.22;4995564;28;20181;-82
2023/08/24 06:13:21;;;;;;;16.50;11.43;;;;;;;25.16;63.94;95020.94;4978193;28;20270;-81
2023/08/24 06:15:47;;;;;;;14.07;11.13;;;;;;;25.52;63.66;95047.97;4989958;28;20186;-82
2023/08/24 06:18:12;;;;;;;24.95;15.23;;;;;;;25.81;63.35;95064.69;4974485;28;20189;-81
2023/08/24 06:20:37;;;;;;;18.45;10.73;;;;;;;25.93;63.41;95051.50;4993479;28;20669;-81
2023/08/24 06:23:03;;;;;;;21.20;12.35;;;;;;;26.21;62.03;95040.59;4995639;28;20188;-81
2023/08/24 06:25:31;;;;;;;16.52;11.07;;;;;;;26.75;60.69;95061.25;4995170;28;20179;-82
2023/08/24 06:27:58;;;;;;;28.92;15.82;;;;;;;26.94;59.55;95063.78;4977708;28;20177;-83
2023/08/24 06:30:24;;;;;;;40.85;16.65;;;;;;;27.04;59.58;95060.84;4995057;28;20568;-82
2023/08/24 06:32:49;;;;;;;35.65;17.13;;;;;;;27.09;59.13;95038.25;4986060;28;20232;-82
2023/08/24 06:35:15;;;;;;;32.88;15.35;;;;;;;27.45;59.04;95046.22;4989323;28;20240;-82
2023/08/24 06:37:40;;;;;;;15.35;12.18;;;;;;;27.66;56.95;95050.00;4978140;28;20576;-82
2023/08/24 06:40:06;;;;;;;24.83;12.77;;;;;;;27.82;57.39;95024.09;4975725;28;20184;-83
2023/08/24 06:42:32;;;;;;;21.13;12.38;;;;;;;28.42;57.09;95070.25;4989919;28;20181;-82
2023/08/24 06:44:57;;;;;;;23.00;15.38;;;;;;;28.70;53.81;95062.59;4994724;28;20200;-82
2023/08/24 06:47:22;;;;;;;25.35;18.08;;;;;;;29.05;53.80;95060.66;4994948;28;20274;-81
2023/08/24 06:49:48;;;;;;;27.95;15.95;;;;;;;29.48;52.22;95071.41;4994476;28;20640;-81
2023/08/24 06:52:13;;;;;;;20.15;11.70;;;;;;;29.77;51.70;95067.13;4994679;28;20192;-80
2023/08/24 06:54:39;;;;;;;18.80;11.07;;;;;;;30.06;51.56;95055.50;4994565;28;20185;-81
2023/08/24 06:57:04;;;;;;;17.20;11.23;;;;;;;30.78;50.94;95065.22;4994787;28;20185;-81
2023/08/24 06:59:30;;;;;;;17.05;10.88;;;;;;;31.30;48.31;95062.81;4994841;28;20200;-80
2023/08/24 07:01:55;;;;;;;21.40;11.43;;;;;;;31.39;47.11;95049.91;4994438;28;20169;-81
2023/08/24 07:04:21;;;;;;;14.15;10.05;;;;;;;31.14;47.17;95040.13;4994309;28;20208;-82
2023/08/24 07:06:47;;;;;;;16.98;10.43;;;;;;;31.20;47.72;95034.13;4994128;28;20200;-80
2023/08/24 07:09:12;;;;;;;13.15;10.77;;;;;;;31.58;46.95;95033.00;4994029;28;20260;-83
2023/08/24 07:11:38;;;;;;;25.20;12.38;;;;;;;31.98;45.92;95054.97;4993144;28;20252;-83
2023/08/24 07:14:04;;;;;;;20.60;13.75;;;;;;;32.25;44.37;95054.28;4994207;28;20189;-80
2023/08/24 07:16:29;;;;;;;18.10;12.10;;;;;;;32.36;43.47;95028.13;4994454;28;20184;-82
2023/08/24 07:18:54;;;;;;;20.25;9.68;;;;;;;32.62;42.38;95046.78;4994104;28;20659;-83
2023/08/24 07:21:20;;;;;;;16.83;10.40;;;;;;;32.74;42.49;95044.06;4994055;28;20648;-83
2023/08/24 07:23:45;;;;;;;21.80;10.60;;;;;;;32.59;42.78;95020.22;4993880;28;20189;-85
2023/08/24 07:26:11;;;;;;;13.02;8.52;;;;;;;32.91;43.56;95054.66;4993954;28;20688;-83
2023/08/24 07:28:36;;;;;;;15.32;8.52;;;;;;;33.20;41.90;95048.06;4994018;28;20165;-83
2023/08/24 07:31:11;;;;;;;11.63;8.38;;;;;;;33.42;41.32;95041.22;4993936;28;20231;-82
2023/08/24 07:33:40;;;;;;;11.93;8.60;;;;;;;33.57;42.02;95036.91;4990582;28;20212;-81
2023/08/24 07:36:06;;;;;;;14.65;8.30;;;;;;;33.90;40.04;95034.66;4992332;28;20656;-81
2023/08/24 07:38:31;;;;;;;14.13;8.80;;;;;;;34.29;40.09;95032.81;4992465;28;20192;-81
2023/08/24 07:40:57;;;;;;;11.38;9.15;;;;;;;34.46;38.15;95017.94;4993504;28;20173;-81
2023/08/24 07:43:23;;;;;;;14.52;9.05;;;;;;;34.37;38.15;95022.81;4993363;28;20204;-82
2023/08/24 07:45:49;;;;;;;12.75;8.50;;;;;;;34.25;39.43;95028.44;4992256;28;20272;-81
2023/08/24 07:48:15;;;;;;;11.43;8.07;;;;;;;34.52;39.30;95040.31;4993374;28;20255;-82
2023/08/24 07:50:40;;;;;;;13.77;8.23;;;;;;;34.67;38.93;95034.00;4993664;28;20222;-82
2023/08/24 07:53:06;;;;;;;14.18;8.55;;;;;;;34.31;38.66;95019.59;4993468;28;21013;-82
2023/08/24 07:55:31;;;;;;;11.90;7.97;;;;;;;34.23;38.95;95033.44;4993439;28;20188;-82
2023/08/24 07:57:57;;;;;;;15.75;9.10;;;;;;;33.66;39.48;95034.78;4993808;28;20180;-81
2023/08/24 08:00:24;;;;;;;14.20;8.23;;;;;;;33.37;40.67;95027.06;4993372;28;20823;-81
2023/08/24 08:02:51;;;;;;;13.05;8.10;;;;;;;33.64;41.04;95026.19;4992051;28;20693;-81
2023/08/24 08:05:17;;;;;;;13.43;8.27;;;;;;;33.97;39.61;95029.34;4991399;28;20201;-81
2023/08/24 08:07:42;;;;;;;8.57;7.45;;;;;;;34.27;39.74;95032.38;4993017;28;20169;-81
2023/08/24 08:10:08;;;;;;;10.07;8.07;;;;;;;34.50;38.30;95035.22;4989959;28;20180;-81
2023/08/24 08:12:34;;;;;;;9.95;7.78;;;;;;;34.63;38.74;95035.88;4990219;28;20181;-81
2023/08/24 08:15:00;;;;;;;12.40;8.55;;;;;;;34.29;38.15;95015.63;4992988;28;20169;-81
2023/08/24 08:17:27;;;;;;;13.25;7.93;;;;;;;34.35;38.26;95003.22;4992755;28;20165;-81
2023/08/24 08:19:58;;;;;;;11.95;8.25;;;;;;;34.95;38.60;95031.06;4992996;28;20231;-80
2023/08/24 08:22:25;;;;;;;11.30;7.78;;;;;;;35.39;37.27;95029.56;4987098;28;20177;-81
2023/08/24 08:24:53;;;;;;;11.55;9.23;;;;;;;35.47;36.38;95033.22;4975770;28;20209;-78
2023/08/24 08:27:22;;;;;;;12.23;8.10;;;;;;;35.54;37.11;95033.34;4992122;28;20259;-78
2023/08/24 08:29:47;;;;;;;15.80;7.63;;;;;;;35.62;36.67;95018.63;4992225;28;20204;-78
2023/08/24 08:32:13;;;;;;;11.05;7.88;;;;;;;35.32;36.09;95010.25;4987738;28;20664;-78
2023/08/24 08:34:38;;;;;;;12.38;8.43;;;;;;;35.24;35.88;95005.81;4978831;28;20192;-78
2023/08/24 08:37:04;;;;;;;11.35;8.07;;;;;;;35.30;36.36;94998.09;4981919;28;20212;-79
2023/08/24 08:39:31;;;;;;;12.48;8.07;;;;;;;35.35;37.12;95015.03;4986395;28;20235;-78
2023/08/24 08:41:57;;;;;;;9.82;7.15;;;;;;;35.48;35.62;95012.88;4988673;28;20175;-82
2023/08/24 08:44:24;;;;;;;14.95;8.38;;;;;;;34.95;36.35;95007.22;4973444;28;20189;-81
2023/08/24 08:46:50;;;;;;;11.07;8.45;;;;;;;34.55;38.05;95001.31;4973435;28;20169;-84
2023/08/24 08:49:16;;;;;;;11.48;8.65;;;;;;;34.72;36.78;94982.50;4973637;28;20278;-83
2023/08/24 08:51:41;;;;;;;10.48;8.27;;;;;;;35.02;37.17;95001.88;4956121;28;20278;-78
2023/08/24 08:54:06;;;;;;;11.75;8.30;;;;;;;35.05;36.09;95005.81;4983807;28;20227;-78
2023/08/24 08:56:33;;;;;;;10.75;8.85;;;;;;;34.85;37.14;94996.06;4981105;28;20199;-79
2023/08/24 08:59:06;;;;;;;9.40;8.10;;;;;;;34.99;35.81;94996.34;4986985;28;20565;-79
2023/08/24 09:01:31;;;;;;;11.05;7.97;;;;;;;35.11;35.13;94982.50;4981246;28;20256;-80
2023/08/24 09:03:57;;;;;;;16.40;8.68;;;;;;;35.00;35.77;94995.97;4959244;28;20288;-78
2023/08/24 09:06:22;;;;;;;13.88;8.63;;;;;;;35.17;35.63;94981.81;4970900;28;20166;-77
2023/08/24 09:08:50;;;;;;;11.93;9.77;;;;;;;34.82;36.39;94981.16;4970739;28;20657;-77
2023/08/24 09:11:17;;;;;;;12.50;9.05;;;;;;;34.59;38.94;94986.56;4971194;28;20640;-77
2023/08/24 09:13:42;;;;;;;10.07;8.48;;;;;;;34.67;37.74;94974.59;4971135;28;20181;-77
2023/08/24 09:16:08;;;;;;;13.25;8.60;;;;;;;34.73;37.94;94972.38;4953783;28;20177;-77
2023/08/24 09:18:38;;;;;;;10.73;7.47;;;;;;;35.03;36.15;94965.13;4971038;28;20186;-78
2023/08/24 09:21:10;;;;;;;15.88;9.02;;;;;;;35.20;36.60;94963.88;4970932;28;20177;-77
2023/08/24 09:23:38;;;;;;;14.77;7.95;;;;;;;34.86;35.76;94965.59;4970848;28;20205;-77
2023/08/24 09:26:04;;;;;;;13.95;9.10;;;;;;;34.72;37.86;94960.63;4970963;28;20255;-77
2023/08/24 09:28:30;;;;;;;10.38;8.60;;;;;;;34.67;37.58;94952.72;4983958;28;20204;-77
2023/08/24 09:30:56;;;;;;;13.48;9.43;;;;;;;34.62;36.41;94954.94;4990190;28;20215;-77
2023/08/24 09:33:25;;;;;;;14.32;8.98;;;;;;;34.30;37.33;94938.69;4990106;28;20221;-78
2023/08/24 09:35:57;;;;;;;13.07;9.07;;;;;;;34.31;36.95;94945.75;4979326;28;20177;-78
2023/08/24 09:38:23;;;;;;;10.98;8.77;;;;;;;34.34;37.66;94947.75;4974364;28;20181;-78
2023/08/24 09:40:54;;;;;;;13.40;10.48;;;;;;;34.02;37.80;94938.06;4974512;28;20174;-78
2023/08/24 09:43:20;;;;;;;13.40;10.57;;;;;;;34.00;39.14;94930.22;4974307;28;20185;-78
2023/08/24 09:45:56;;;;;;;15.02;9.15;;;;;;;34.21;37.36;94935.34;4974587;28;20182;-78
2023/08/24 09:48:23;;;;;;;10.70;8.45;;;;;;;34.27;36.85;94928.47;4958265;28;20667;-78
2023/08/24 09:50:50;;;;;;;14.32;9.32;;;;;;;34.42;37.21;94915.88;4993761;28;20725;-78
2023/08/24 09:53:18;;;;;;;11.68;9.30;;;;;;;34.30;36.49;94921.50;4993833;28;20172;-78
2023/08/24 09:55:50;;;;;;;13.77;8.98;;;;;;;34.22;37.89;94925.22;4993590;28;20181;-78
2023/08/24 09:58:17;;;;;;;14.68;9.45;;;;;;;34.04;38.51;94917.44;4989672;28;20181;-78
2023/08/24 10:00:46;;;;;;;12.63;9.73;;;;;;;33.85;37.34;94913.88;4957669;28;20177;-78
2023/08/24 10:03:16;;;;;;;11.88;9.18;;;;;;;33.87;37.16;94906.13;4974140;28;20193;-78
2023/08/24 10:05:43;;;;;;;10.90;8.68;;;;;;;33.99;37.16;94911.47;4956776;28;20177;-78
2023/08/24 10:08:10;;;;;;;11.65;8.30;;;;;;;34.19;36.72;94906.78;4974126;28;20264;-78
2023/08/24 10:10:38;;;;;;;15.02;7.70;;;;;;;34.38;35.91;94909.53;4974013;28;20201;-78
2023/08/24 10:13:11;;;;;;;10.95;7.93;;;;;;;34.50;35.96;94916.81;4974042;28;20282;-78
2023/08/24 10:15:46;;;;;;;9.07;7.93;;;;;;;34.56;34.67;94907.16;4992265;28;20173;-77
2023/08/24 10:18:13;;;;;;;18.52;8.98;;;;;;;34.62;35.63;94911.16;4993322;28;20223;-78
2023/08/24 10:20:39;;;;;;;9.63;8.07;;;;;;;34.72;35.12;94905.91;4993341;28;20169;-78
2023/08/24 10:23:04;;;;;;;15.60;8.05;;;;;;;34.65;34.18;94902.25;4988362;28;20174;-78
2023/08/24 10:25:30;;;;;;;12.02;7.40;;;;;;;34.58;34.05;94900.19;4987263;28;20201;-78
2023/08/24 10:27:57;;;;;;;8.80;7.18;;;;;;;34.67;35.02;94902.69;4993005;28;20199;-78
2023/08/24 10:30:23;;;;;;;13.57;8.10;;;;;;;34.72;34.18;94900.44;4993291;28;20236;-78
2023/08/24 10:32:53;;;;;;;9.50;7.55;;;;;;;34.69;34.87;94886.66;4992946;28;20251;-78
2023/08/24 10:35:19;;;;;;;9.98;7.07;;;;;;;34.77;33.75;94883.72;4992999;28;20172;-78
2023/08/24 10:37:48;;;;;;;8.68;6.72;;;;;;;34.81;34.09;94889.28;4993069;28;20638;-78
2023/08/24 10:40:13;;;;;;;10.15;7.22;;;;;;;34.79;33.59;94888.84;4992816;28;20181;-78
2023/08/24 10:42:46;;;;;;;10.77;7.78;;;;;;;34.63;33.66;94899.88;4993110;28;20663;-78
2023/08/24 10:45:17;;;;;;;11.02;7.35;;;;;;;34.41;34.65;94904.16;4978743;28;20224;-78
2023/08/24 10:47:46;;;;;;;11.80;7.07;;;;;;;34.18;34.55;94886.06;4992903;28;20181;-78
2023/08/24 10:50:13;;;;;;;7.90;7.10;;;;;;;34.01;34.50;94899.00;4982930;28;20192;-78
2023/08/24 10:52:44;;;;;;;9.52;7.43;;;;;;;33.89;35.21;94910.09;4973380;28;20576;-78
2023/08/24 10:55:26;;;;;;;9.25;7.32;;;;;;;33.70;37.84;94905.34;4973216;28;20717;-78
2023/08/24 10:57:59;;;;;;;16.15;7.50;;;;;;;33.38;39.36;94906.56;4973442;28;20185;-77
2023/08/24 11:00:29;;;;;;;10.30;7.80;;;;;;;32.96;40.65;94903.53;4973162;28;20186;-78
2023/08/24 11:02:56;;;;;;;12.60;8.20;;;;;;;32.65;41.10;94890.66;4973148;28;20213;-77
2023/08/24 11:05:30;;;;;;;9.65;7.97;;;;;;;32.42;41.72;94898.63;4982532;28;20197;-78
2023/08/24 11:08:04;;;;;;;8.77;7.68;;;;;;;32.09;40.60;94879.75;4992315;28;20176;-78
2023/08/24 11:10:42;;;;;;;14.50;6.80;;;;;;;31.90;40.88;94893.22;4992967;28;20247;-78
2023/08/24 11:13:14;;;;;;;6.78;5.97;;;;;;;31.76;38.62;94890.06;4985875;28;20180;-78
2023/08/24 11:15:45;;;;;;;8.15;5.80;;;;;;;31.66;38.73;94883.16;4972838;28;20216;-78
2023/08/24 11:18:24;;;;;;;7.35;5.82;;;;;;;31.54;39.50;94887.84;4980895;28;20188;-77
2023/08/24 11:20:59;;;;;;;8.10;5.57;;;;;;;31.39;38.19;94886.63;4977774;28;20195;-77